createdAt,value
2018-12-03T00:00:42.527Z,1011.78
2018-12-03T00:01:42.517Z,1011.76
2018-12-03T00:02:42.508Z,1011.75
2018-12-03T00:03:42.500Z,1011.73
2018-12-03T00:04:42.491Z,1011.69
2018-12-03T00:05:42.481Z,1011.7
2018-12-03T00:06:42.479Z,1011.66
2018-12-03T00:07:42.468Z,1011.69
2018-12-03T00:08:42.455Z,1011.69
2018-12-03T00:09:42.447Z,1011.7
2018-12-03T00:10:42.437Z,1011.73
2018-12-03T00:11:42.427Z,1011.71
2018-12-03T00:12:42.420Z,1011.7
2018-12-03T00:13:42.412Z,1011.64
2018-12-03T00:14:42.408Z,1011.69
2018-12-03T00:15:42.393Z,1011.68
2018-12-03T00:16:42.384Z,1011.64
2018-12-03T00:17:42.374Z,1011.68
2018-12-03T00:18:42.367Z,1011.7
2018-12-03T00:19:42.359Z,1011.76
2018-12-03T00:20:42.349Z,1011.71
2018-12-03T00:21:42.340Z,1011.73
2018-12-03T00:22:42.330Z,1011.76
2018-12-03T00:23:42.322Z,1011.72
2018-12-03T00:24:42.318Z,1011.7
2018-12-03T00:25:42.305Z,1011.68
2018-12-03T00:26:42.297Z,1011.68
2018-12-03T00:27:42.287Z,1011.69
2018-12-03T00:28:42.285Z,1011.6
2018-12-03T00:29:42.270Z,1011.6
2018-12-03T00:30:42.262Z,1011.62
2018-12-03T00:31:42.253Z,1011.66
2018-12-03T00:32:42.246Z,1011.68
2018-12-03T00:33:42.236Z,1011.68
2018-12-03T00:34:42.227Z,1011.68
2018-12-03T00:35:42.218Z,1011.69
2018-12-03T00:36:42.210Z,1011.71
2018-12-03T00:37:42.200Z,1011.68
2018-12-03T00:38:42.195Z,1011.71
2018-12-03T00:39:42.186Z,1011.66
2018-12-03T00:40:42.175Z,1011.65
2018-12-03T00:41:42.166Z,1011.69
2018-12-03T00:42:42.158Z,1011.67
2018-12-03T00:43:42.153Z,1011.66
2018-12-03T00:44:42.141Z,1011.69
2018-12-03T00:45:42.133Z,1011.69
2018-12-03T00:46:42.124Z,1011.6
2018-12-03T00:47:42.115Z,1011.63
2018-12-03T00:48:42.108Z,1011.58
2018-12-03T00:49:42.097Z,1011.59
2018-12-03T00:50:42.090Z,1011.63
2018-12-03T00:51:42.081Z,1011.6
2018-12-03T00:52:42.073Z,1011.56
2018-12-03T00:53:42.064Z,1011.55
2018-12-03T00:54:42.056Z,1011.53
2018-12-03T00:55:42.046Z,1011.54
2018-12-03T00:56:42.037Z,1011.51
2018-12-03T00:57:42.029Z,1011.53
2018-12-03T00:58:42.022Z,1011.51
2018-12-03T00:59:42.012Z,1011.49
2018-12-03T01:00:42.004Z,1011.51
2018-12-03T01:01:41.996Z,1011.54
2018-12-03T01:02:41.991Z,1011.52
2018-12-03T01:03:41.977Z,1011.55
2018-12-03T01:04:41.969Z,1011.56
2018-12-03T01:05:41.960Z,1011.61
2018-12-03T01:06:41.951Z,1011.69
2018-12-03T01:07:41.943Z,1011.64
2018-12-03T01:08:41.934Z,1011.65
2018-12-03T01:09:41.927Z,1011.66
2018-12-03T01:10:41.920Z,1011.68
2018-12-03T01:11:41.910Z,1011.66
2018-12-03T01:12:41.901Z,1011.64
2018-12-03T01:13:41.892Z,1011.67
2018-12-03T01:14:41.886Z,1011.64
2018-12-03T01:15:41.876Z,1011.67
2018-12-03T01:16:41.866Z,1011.65
2018-12-03T01:17:41.858Z,1011.66
2018-12-03T01:18:41.850Z,1011.68
2018-12-03T01:19:41.842Z,1011.65
2018-12-03T01:20:41.832Z,1011.67
2018-12-03T01:21:41.824Z,1011.64
2018-12-03T01:22:41.815Z,1011.66
2018-12-03T01:23:41.807Z,1011.65
2018-12-03T01:24:41.798Z,1011.65
2018-12-03T01:25:41.789Z,1011.6
2018-12-03T01:26:41.781Z,1011.6
2018-12-03T01:27:41.773Z,1011.65
2018-12-03T01:28:41.771Z,1011.61
2018-12-03T01:29:41.755Z,1011.61
2018-12-03T01:30:41.747Z,1011.64
2018-12-03T01:31:41.739Z,1011.59
2018-12-03T01:32:41.730Z,1011.64
2018-12-03T01:33:41.721Z,1011.66
2018-12-03T01:34:41.714Z,1011.67
2018-12-03T01:35:41.705Z,1011.63
2018-12-03T01:36:41.698Z,1011.63
2018-12-03T01:37:41.688Z,1011.66
2018-12-03T01:38:41.680Z,1011.61
2018-12-03T01:39:41.670Z,1011.55
2018-12-03T01:40:41.661Z,1011.46
2018-12-03T01:41:41.652Z,1011.47
2018-12-03T01:42:41.646Z,1011.43
2018-12-03T01:43:41.636Z,1011.39
2018-12-03T01:44:41.628Z,1011.42
2018-12-03T01:45:41.620Z,1011.43
2018-12-03T01:46:41.612Z,1011.43
2018-12-03T01:47:41.602Z,1011.38
2018-12-03T01:48:41.594Z,1011.32
2018-12-03T01:49:41.587Z,1011.3
2018-12-03T01:50:41.576Z,1011.29
2018-12-03T01:51:41.568Z,1011.29
2018-12-03T01:52:41.560Z,1011.36
2018-12-03T01:53:41.558Z,1011.34
2018-12-03T01:54:41.544Z,1011.38
2018-12-03T01:55:41.538Z,1011.45
2018-12-03T01:56:41.527Z,1011.47
2018-12-03T01:57:41.516Z,1011.47
2018-12-03T01:58:41.513Z,1011.46
2018-12-03T01:59:41.503Z,1011.45
2018-12-03T02:00:41.494Z,1011.45
2018-12-03T02:01:41.485Z,1011.38
2018-12-03T02:02:41.475Z,1011.41
2018-12-03T02:03:41.467Z,1011.41
2018-12-03T02:04:41.459Z,1011.43
2018-12-03T02:05:41.451Z,1011.45
2018-12-03T02:06:41.447Z,1011.49
2018-12-03T02:07:41.436Z,1011.45
2018-12-03T02:08:41.426Z,1011.31
2018-12-03T02:09:41.419Z,1011.35
2018-12-03T02:10:41.411Z,1011.32
2018-12-03T02:11:41.403Z,1011.33
2018-12-03T02:12:41.394Z,1011.4
2018-12-03T02:13:41.386Z,1011.38
2018-12-03T02:14:41.378Z,1011.39
2018-12-03T02:15:41.368Z,1011.36
2018-12-03T02:16:41.360Z,1011.42
2018-12-03T02:17:41.351Z,1011.43
2018-12-03T02:18:41.348Z,1011.44
2018-12-03T02:19:41.336Z,1011.4
2018-12-03T02:20:41.328Z,1011.39
2018-12-03T02:21:41.320Z,1011.39
2018-12-03T02:22:41.312Z,1011.41
2018-12-03T02:23:41.303Z,1011.41
2018-12-03T02:24:41.294Z,1011.4
2018-12-03T02:25:41.287Z,1011.41
2018-12-03T02:26:41.277Z,1011.41
2018-12-03T02:27:41.270Z,1011.36
2018-12-03T02:28:41.262Z,1011.3
2018-12-03T02:29:41.259Z,1011.3
2018-12-03T02:30:41.245Z,1011.3
2018-12-03T02:31:41.238Z,1011.24
2018-12-03T02:32:41.229Z,1011.23
2018-12-03T02:33:41.221Z,1011.26
2018-12-03T02:34:41.210Z,1011.23
2018-12-03T02:35:41.206Z,1011.19
2018-12-03T02:36:41.200Z,1011.21
2018-12-03T02:37:41.185Z,1011.28
2018-12-03T02:38:41.179Z,1011.32
2018-12-03T02:39:41.172Z,1011.35
2018-12-03T02:40:41.163Z,1011.34
2018-12-03T02:41:41.157Z,1011.34
2018-12-03T02:42:41.159Z,1011.33
2018-12-03T02:43:41.136Z,1011.34
2018-12-03T02:44:41.130Z,1011.3
2018-12-03T02:45:41.120Z,1011.32
2018-12-03T02:46:41.113Z,1011.3
2018-12-03T02:47:41.106Z,1011.34
2018-12-03T02:48:41.096Z,1011.34
2018-12-03T02:49:41.089Z,1011.36
2018-12-03T02:50:41.082Z,1011.38
2018-12-03T02:51:41.072Z,1011.34
2018-12-03T02:52:41.064Z,1011.33
2018-12-03T02:53:41.056Z,1011.39
2018-12-03T02:54:41.052Z,1011.37
2018-12-03T02:55:41.040Z,1011.38
2018-12-03T02:56:41.035Z,1011.37
2018-12-03T02:57:41.026Z,1011.44
2018-12-03T02:58:41.015Z,1011.43
2018-12-03T02:59:41.005Z,1011.43
2018-12-03T03:00:41.002Z,1011.45
2018-12-03T03:01:41.000Z,1011.37
2018-12-03T03:02:40.983Z,1011.38
2018-12-03T03:03:40.975Z,1011.42
2018-12-03T03:04:40.965Z,1011.44
2018-12-03T03:05:40.958Z,1011.46
2018-12-03T03:06:40.951Z,1011.48
2018-12-03T03:07:40.943Z,1011.46
2018-12-03T03:08:40.935Z,1011.44
2018-12-03T03:09:40.942Z,1011.45
2018-12-03T03:10:40.918Z,1011.4
2018-12-03T03:11:40.908Z,1011.42
2018-12-03T03:12:40.903Z,1011.41
2018-12-03T03:13:40.893Z,1011.4
2018-12-03T03:14:40.884Z,1011.39
2018-12-03T03:15:40.876Z,1011.37
2018-12-03T03:16:40.868Z,1011.39
2018-12-03T03:17:40.861Z,1011.44
2018-12-03T03:18:40.853Z,1011.47
2018-12-03T03:19:40.844Z,1011.43
2018-12-03T03:20:40.836Z,1011.41
2018-12-03T03:21:40.828Z,1011.39
2018-12-03T03:22:40.819Z,1011.46
2018-12-03T03:23:40.815Z,1011.5
2018-12-03T03:24:40.805Z,1011.54
2018-12-03T03:25:40.795Z,1011.59
2018-12-03T03:26:40.785Z,1011.59
2018-12-03T03:27:40.791Z,1011.57
2018-12-03T03:28:40.771Z,1011.56
2018-12-03T03:29:40.762Z,1011.49
2018-12-03T03:30:40.754Z,1011.5
2018-12-03T03:31:40.753Z,1011.52
2018-12-03T03:32:40.745Z,1011.45
2018-12-03T03:33:40.732Z,1011.45
2018-12-03T03:34:40.722Z,1011.45
2018-12-03T03:35:40.723Z,1011.49
2018-12-03T03:36:40.706Z,1011.47
2018-12-03T03:37:40.702Z,1011.48
2018-12-03T03:38:40.690Z,1011.46
2018-12-03T03:39:40.683Z,1011.45
2018-12-03T03:40:40.675Z,1011.5
2018-12-03T03:41:40.667Z,1011.46
2018-12-03T03:42:40.661Z,1011.56
2018-12-03T03:43:40.653Z,1011.53
2018-12-03T03:44:40.641Z,1011.52
2018-12-03T03:45:40.631Z,1011.5
2018-12-03T03:46:40.625Z,1011.52
2018-12-03T03:47:40.615Z,1011.51
2018-12-03T03:48:40.608Z,1011.53
2018-12-03T03:49:40.600Z,1011.54
2018-12-03T03:50:40.590Z,1011.52
2018-12-03T03:51:40.583Z,1011.55
2018-12-03T03:52:40.575Z,1011.57
2018-12-03T03:53:40.568Z,1011.57
2018-12-03T03:54:40.557Z,1011.59
2018-12-03T03:55:40.549Z,1011.58
2018-12-03T03:56:40.542Z,1011.61
2018-12-03T03:57:40.533Z,1011.6
2018-12-03T03:58:40.525Z,1011.58
2018-12-03T03:59:40.518Z,1011.53
2018-12-03T04:00:40.510Z,1011.56
2018-12-03T04:01:40.501Z,1011.56
2018-12-03T04:02:40.491Z,1011.52
2018-12-03T04:03:40.486Z,1011.54
2018-12-03T04:04:40.477Z,1011.59
2018-12-03T04:05:40.468Z,1011.56
2018-12-03T04:06:40.458Z,1011.54
2018-12-03T04:07:40.454Z,1011.6
2018-12-03T04:08:40.442Z,1011.59
2018-12-03T04:09:40.434Z,1011.6
2018-12-03T04:10:40.427Z,1011.58
2018-12-03T04:11:40.419Z,1011.56
2018-12-03T04:12:40.412Z,1011.56
2018-12-03T04:13:40.402Z,1011.56
2018-12-03T04:14:40.392Z,1011.52
2018-12-03T04:15:40.386Z,1011.56
2018-12-03T04:16:40.388Z,1011.56
2018-12-03T04:17:40.367Z,1011.62
2018-12-03T04:18:40.361Z,1011.65
2018-12-03T04:19:40.355Z,1011.63
2018-12-03T04:20:40.344Z,1011.64
2018-12-03T04:21:40.336Z,1011.62
2018-12-03T04:22:40.328Z,1011.58
2018-12-03T04:23:40.318Z,1011.58
2018-12-03T04:24:40.309Z,1011.6
2018-12-03T04:25:40.301Z,1011.56
2018-12-03T04:26:40.294Z,1011.53
2018-12-03T04:27:40.285Z,1011.52
2018-12-03T04:28:40.277Z,1011.52
2018-12-03T04:29:40.269Z,1011.52
2018-12-03T04:30:40.260Z,1011.56
2018-12-03T04:31:40.252Z,1011.53
2018-12-03T04:32:40.243Z,1011.51
2018-12-03T04:33:40.236Z,1011.51
2018-12-03T04:34:40.226Z,1011.46
2018-12-03T04:35:40.222Z,1011.49
2018-12-03T04:36:40.210Z,1011.49
2018-12-03T04:37:40.203Z,1011.41
2018-12-03T04:38:40.195Z,1011.36
2018-12-03T04:39:40.186Z,1011.32
2018-12-03T04:40:40.234Z,1011.32
2018-12-03T04:41:40.170Z,1011.32
2018-12-03T04:42:40.160Z,1011.33
2018-12-03T04:43:40.158Z,1011.3
2018-12-03T04:44:40.145Z,1011.29
2018-12-03T04:45:40.135Z,1011.33
2018-12-03T04:46:40.125Z,1011.27
2018-12-03T04:47:40.118Z,1011.26
2018-12-03T04:48:40.110Z,1011.22
2018-12-03T04:49:40.116Z,1011.25
2018-12-03T04:50:40.094Z,1011.27
2018-12-03T04:51:40.086Z,1011.31
2018-12-03T04:52:40.079Z,1011.37
2018-12-03T04:53:40.068Z,1011.41
2018-12-03T04:54:40.061Z,1011.38
2018-12-03T04:55:40.052Z,1011.37
2018-12-03T04:56:40.044Z,1011.38
2018-12-03T04:57:40.077Z,1011.37
2018-12-03T04:58:40.028Z,1011.34
2018-12-03T04:59:40.018Z,1011.38
2018-12-03T05:00:40.010Z,1011.39
2018-12-03T05:01:40.001Z,1011.38
2018-12-03T05:02:40.052Z,1011.36
2018-12-03T05:03:39.987Z,1011.33
2018-12-03T05:04:39.978Z,1011.34
2018-12-03T05:05:39.970Z,1011.28
2018-12-03T05:06:39.959Z,1011.28
2018-12-03T05:07:39.952Z,1011.28
2018-12-03T05:08:39.944Z,1011.18
2018-12-03T05:09:39.937Z,1011.18
2018-12-03T05:10:39.926Z,1011.16
2018-12-03T05:11:39.917Z,1011.14
2018-12-03T05:12:39.910Z,1011.13
2018-12-03T05:13:39.902Z,1011.13
2018-12-03T05:14:39.895Z,1011.11
2018-12-03T05:15:39.887Z,1011.12
2018-12-03T05:16:39.878Z,1011.11
2018-12-03T05:17:39.870Z,1011.12
2018-12-03T05:18:39.861Z,1011.09
2018-12-03T05:19:39.858Z,1011.06
2018-12-03T05:20:39.844Z,1011.07
2018-12-03T05:21:39.838Z,1011.08
2018-12-03T05:22:39.837Z,1011.05
2018-12-03T05:23:39.820Z,1011.1
2018-12-03T05:24:39.813Z,1011.05
2018-12-03T05:25:39.803Z,1011.13
2018-12-03T05:26:39.801Z,1011.12
2018-12-03T05:27:39.792Z,1011.19
2018-12-03T05:28:39.780Z,1011.18
2018-12-03T05:29:39.771Z,1011.16
2018-12-03T05:30:39.764Z,1011.21
2018-12-03T05:31:39.755Z,1011.23
2018-12-03T05:32:39.748Z,1011.28
2018-12-03T05:33:39.739Z,1011.25
2018-12-03T05:34:39.731Z,1011.26
2018-12-03T05:35:39.722Z,1011.34
2018-12-03T05:36:39.715Z,1011.33
2018-12-03T05:37:39.708Z,1011.37
2018-12-03T05:38:39.700Z,1011.36
2018-12-03T05:39:39.691Z,1011.34
2018-12-03T05:40:39.682Z,1011.33
2018-12-03T05:41:39.674Z,1011.35
2018-12-03T05:42:39.668Z,1011.32
2018-12-03T05:43:39.658Z,1011.31
2018-12-03T05:44:39.649Z,1011.29
2018-12-03T05:45:39.641Z,1011.29
2018-12-03T05:46:39.636Z,1011.23
2018-12-03T05:47:39.625Z,1011.23
2018-12-03T05:48:39.616Z,1011.18
2018-12-03T05:49:39.608Z,1011.2
2018-12-03T05:50:39.602Z,1011.16
2018-12-03T05:51:39.595Z,1011.15
2018-12-03T05:52:39.585Z,1011.13
2018-12-03T05:53:39.578Z,1011.09
2018-12-03T05:54:39.569Z,1011.07
2018-12-03T05:55:39.560Z,1011.04
2018-12-03T05:56:39.552Z,1011.03
2018-12-03T05:57:39.544Z,1011.05
2018-12-03T05:58:39.536Z,1011.03
2018-12-03T05:59:39.528Z,1011.01
2018-12-03T06:00:39.521Z,1011
2018-12-03T06:01:39.513Z,1011.03
2018-12-03T06:02:39.528Z,1010.98
2018-12-03T06:03:39.496Z,1010.95
2018-12-03T06:04:39.488Z,1010.94
2018-12-03T06:05:39.480Z,1010.89
2018-12-03T06:06:39.473Z,1010.93
2018-12-03T06:07:39.467Z,1010.97
2018-12-03T06:08:39.457Z,1010.94
2018-12-03T06:09:39.449Z,1010.96
2018-12-03T06:10:39.439Z,1010.97
2018-12-03T06:11:39.431Z,1010.93
2018-12-03T06:12:39.424Z,1010.94
2018-12-03T06:13:39.416Z,1010.96
2018-12-03T06:14:39.407Z,1011.02
2018-12-03T06:15:39.399Z,1010.96
2018-12-03T06:16:39.391Z,1010.96
2018-12-03T06:17:39.384Z,1011.01
2018-12-03T06:18:39.376Z,1010.97
2018-12-03T06:19:39.368Z,1010.97
2018-12-03T06:20:39.360Z,1010.95
2018-12-03T06:21:39.351Z,1010.92
2018-12-03T06:22:39.349Z,1010.92
2018-12-03T06:23:39.335Z,1010.95
2018-12-03T06:24:39.326Z,1010.95
2018-12-03T06:25:39.319Z,1010.99
2018-12-03T06:26:39.313Z,1011.02
2018-12-03T06:27:39.303Z,1011.05
2018-12-03T06:28:39.294Z,1011.1
2018-12-03T06:29:39.286Z,1011.12
2018-12-03T06:30:39.281Z,1011.19
2018-12-03T06:31:39.273Z,1011.21
2018-12-03T06:32:39.263Z,1011.22
2018-12-03T06:33:39.257Z,1011.22
2018-12-03T06:34:39.247Z,1011.22
2018-12-03T06:35:39.237Z,1011.21
2018-12-03T06:36:39.230Z,1011.27
2018-12-03T06:37:39.222Z,1011.25
2018-12-03T06:38:39.216Z,1011.22
2018-12-03T06:39:39.206Z,1011.22
2018-12-03T06:40:39.197Z,1011.21
2018-12-03T06:41:39.190Z,1011.18
2018-12-03T06:42:39.184Z,1011.23
2018-12-03T06:43:39.174Z,1011.25
2018-12-03T06:44:39.166Z,1011.28
2018-12-03T06:45:39.159Z,1011.26
2018-12-03T06:46:39.149Z,1011.31
2018-12-03T06:47:39.140Z,1011.3
2018-12-03T06:48:39.133Z,1011.27
2018-12-03T06:49:40.284Z,1011.29
2018-12-03T06:50:39.118Z,1011.28
2018-12-03T06:51:39.110Z,1011.26
2018-12-03T06:52:39.103Z,1011.24
2018-12-03T06:53:39.092Z,1011.23
2018-12-03T06:54:39.087Z,1011.21
2018-12-03T06:55:39.077Z,1011.24
2018-12-03T06:56:39.069Z,1011.18
2018-12-03T06:57:39.061Z,1011.19
2018-12-03T06:58:39.051Z,1011.19
2018-12-03T06:59:39.045Z,1011.15
2018-12-03T07:00:39.035Z,1011.11
2018-12-03T07:01:39.026Z,1011.13
2018-12-03T07:02:39.022Z,1011.13
2018-12-03T07:03:39.013Z,1011.14
2018-12-03T07:04:39.001Z,1011.14
2018-12-03T07:05:39.007Z,1011.1
2018-12-03T07:06:38.991Z,1011.1
2018-12-03T07:07:38.981Z,1011.1
2018-12-03T07:08:38.970Z,1011.13
2018-12-03T07:09:38.966Z,1011.1
2018-12-03T07:10:38.953Z,1011.13
2018-12-03T07:11:38.945Z,1011.19
2018-12-03T07:12:38.936Z,1011.22
2018-12-03T07:13:38.928Z,1011.21
2018-12-03T07:14:38.922Z,1011.23
2018-12-03T07:15:38.914Z,1011.24
2018-12-03T07:16:38.905Z,1011.27
2018-12-03T07:17:38.896Z,1011.24
2018-12-03T07:18:38.900Z,1011.21
2018-12-03T07:19:38.880Z,1011.23
2018-12-03T07:20:38.872Z,1011.18
2018-12-03T07:21:38.865Z,1011.17
2018-12-03T07:22:38.858Z,1011.2
2018-12-03T07:23:38.847Z,1011.15
2018-12-03T07:24:38.839Z,1011.22
2018-12-03T07:25:38.839Z,1011.23
2018-12-03T07:26:38.826Z,1011.22
2018-12-03T07:27:38.816Z,1011.24
2018-12-03T07:28:38.807Z,1011.19
2018-12-03T07:29:38.800Z,1011.18
2018-12-03T07:30:38.791Z,1011.18
2018-12-03T07:31:38.783Z,1011.2
2018-12-03T07:32:38.776Z,1011.2
2018-12-03T07:33:38.767Z,1011.26
2018-12-03T07:34:38.758Z,1011.26
2018-12-03T07:35:38.750Z,1011.3
2018-12-03T07:36:38.742Z,1011.27
2018-12-03T07:37:38.734Z,1011.28
2018-12-03T07:38:38.726Z,1011.28
2018-12-03T07:39:38.718Z,1011.22
2018-12-03T07:40:38.711Z,1011.23
2018-12-03T07:41:38.702Z,1011.23
2018-12-03T07:42:38.693Z,1011.26
2018-12-03T07:43:38.686Z,1011.26
2018-12-03T07:44:38.676Z,1011.23
2018-12-03T07:45:38.669Z,1011.26
2018-12-03T07:46:38.662Z,1011.24
2018-12-03T07:47:38.655Z,1011.27
2018-12-03T07:48:38.645Z,1011.27
2018-12-03T07:49:38.637Z,1011.28
2018-12-03T07:50:38.629Z,1011.29
2018-12-03T07:51:38.620Z,1011.24
2018-12-03T07:52:38.614Z,1011.27
2018-12-03T07:53:38.604Z,1011.25
2018-12-03T07:54:38.602Z,1011.24
2018-12-03T07:55:38.587Z,1011.18
2018-12-03T07:56:38.579Z,1011.15
2018-12-03T07:57:38.573Z,1011.18
2018-12-03T07:58:38.566Z,1011.14
2018-12-03T07:59:38.557Z,1011.13
2018-12-03T08:00:38.551Z,1011.08
2018-12-03T08:01:38.541Z,1011.06
2018-12-03T08:02:38.532Z,1011.01
2018-12-03T08:03:38.524Z,1010.99
2018-12-03T08:04:38.517Z,1010.98
2018-12-03T08:05:38.508Z,1010.96
2018-12-03T08:06:38.501Z,1010.89
2018-12-03T08:07:38.493Z,1010.87
2018-12-03T08:08:38.485Z,1010.82
2018-12-03T08:09:38.481Z,1010.84
2018-12-03T08:10:38.470Z,1010.78
2018-12-03T08:11:38.462Z,1010.75
2018-12-03T08:12:38.458Z,1010.71
2018-12-03T08:13:38.447Z,1010.7
2018-12-03T08:14:38.440Z,1010.7
2018-12-03T08:15:38.432Z,1010.65
2018-12-03T08:16:39.204Z,1010.62
2018-12-03T08:17:38.415Z,1010.59
2018-12-03T08:18:38.409Z,1010.52
2018-12-03T08:19:38.401Z,1010.47
2018-12-03T08:20:38.395Z,1010.48
2018-12-03T08:21:38.386Z,1010.45
2018-12-03T08:22:38.378Z,1010.41
2018-12-03T08:23:38.371Z,1010.44
2018-12-03T08:24:38.366Z,1010.46
2018-12-03T08:25:38.362Z,1010.39
2018-12-03T08:26:38.350Z,1010.44
2018-12-03T08:27:38.343Z,1010.39
2018-12-03T08:28:38.335Z,1010.4
2018-12-03T08:29:38.329Z,1010.36
2018-12-03T08:30:38.323Z,1010.33
2018-12-03T08:31:38.316Z,1010.37
2018-12-03T08:32:38.307Z,1010.34
2018-12-03T08:33:38.301Z,1010.29
2018-12-03T08:34:38.295Z,1010.36
2018-12-03T08:35:38.286Z,1010.44
2018-12-03T08:36:38.281Z,1010.53
2018-12-03T08:37:38.276Z,1010.58
2018-12-03T08:38:39.234Z,1010.7
2018-12-03T08:39:38.259Z,1010.79
2018-12-03T08:40:38.252Z,1010.82
2018-12-03T08:41:38.247Z,1010.87
2018-12-03T08:42:38.240Z,1010.88
2018-12-03T08:43:38.233Z,1010.92
2018-12-03T08:44:38.225Z,1010.95
2018-12-03T08:45:38.219Z,1010.99
2018-12-03T08:46:38.210Z,1011.01
2018-12-03T08:47:38.209Z,1011
2018-12-03T08:48:38.198Z,1011
2018-12-03T08:49:38.192Z,1011.02
2018-12-03T08:50:38.183Z,1010.93
2018-12-03T08:51:38.176Z,1010.92
2018-12-03T08:52:38.169Z,1010.92
2018-12-03T08:53:38.162Z,1010.95
2018-12-03T08:54:38.156Z,1010.99
2018-12-03T08:55:38.148Z,1010.94
2018-12-03T08:56:38.141Z,1010.88
2018-12-03T08:57:38.137Z,1010.81
2018-12-03T08:58:38.127Z,1010.8
2018-12-03T08:59:38.119Z,1010.72
2018-12-03T09:00:38.113Z,1010.72
2018-12-03T09:01:38.106Z,1010.68
2018-12-03T09:02:38.099Z,1010.59
2018-12-03T09:03:38.090Z,1010.49
2018-12-03T09:04:38.084Z,1010.47
2018-12-03T09:05:38.078Z,1010.41
2018-12-03T09:06:38.074Z,1010.41
2018-12-03T09:07:38.064Z,1010.35
2018-12-03T09:08:38.062Z,1010.24
2018-12-03T09:09:38.050Z,1010.33
2018-12-03T09:10:38.042Z,1010.28
2018-12-03T09:11:38.036Z,1010.29
2018-12-03T09:12:38.219Z,1010.24
2018-12-03T09:13:38.025Z,1010.2
2018-12-03T09:14:38.016Z,1010.2
2018-12-03T09:15:38.010Z,1010.09
2018-12-03T09:16:38.006Z,1010.02
2018-12-03T09:17:37.995Z,1009.97
2018-12-03T09:18:37.993Z,1009.89
2018-12-03T09:19:37.986Z,1009.89
2018-12-03T09:20:37.977Z,1009.9
2018-12-03T09:21:37.971Z,1009.89
2018-12-03T09:22:37.964Z,1009.89
2018-12-03T09:23:37.957Z,1009.89
2018-12-03T09:24:37.950Z,1009.81
2018-12-03T09:25:37.946Z,1009.8
2018-12-03T09:26:37.939Z,1009.77
2018-12-03T09:27:37.932Z,1009.76
2018-12-03T09:28:37.928Z,1009.68
2018-12-03T09:29:37.920Z,1009.71
2018-12-03T09:30:37.913Z,1009.7
2018-12-03T09:31:37.907Z,1009.66
2018-12-03T09:32:37.900Z,1009.63
2018-12-03T09:33:37.895Z,1009.63
2018-12-03T09:34:37.889Z,1009.62
2018-12-03T09:35:37.883Z,1009.66
2018-12-03T09:36:37.878Z,1009.66
2018-12-03T09:37:37.872Z,1009.67
2018-12-03T09:38:37.870Z,1009.73
2018-12-03T09:39:37.858Z,1009.84
2018-12-03T09:40:37.855Z,1009.81
2018-12-03T09:41:37.846Z,1009.81
2018-12-03T09:42:37.840Z,1009.79
2018-12-03T09:43:37.834Z,1009.82
2018-12-03T09:44:37.830Z,1009.87
2018-12-03T09:45:37.822Z,1009.86
2018-12-03T09:46:37.816Z,1009.86
2018-12-03T09:47:37.811Z,1009.8
2018-12-03T09:48:37.805Z,1009.77
2018-12-03T09:49:37.799Z,1009.72
2018-12-03T09:50:37.793Z,1009.71
2018-12-03T09:51:37.787Z,1009.63
2018-12-03T09:52:37.781Z,1009.54
2018-12-03T09:53:37.774Z,1009.45
2018-12-03T09:54:37.769Z,1009.56
2018-12-03T09:55:37.763Z,1009.59
2018-12-03T09:56:37.757Z,1009.56
2018-12-03T09:57:37.751Z,1009.54
2018-12-03T09:58:37.747Z,1009.6
2018-12-03T09:59:37.742Z,1009.57
2018-12-03T10:00:37.740Z,1009.6
2018-12-03T10:01:37.731Z,1009.66
2018-12-03T10:02:37.724Z,1009.71
2018-12-03T10:03:37.717Z,1009.75
2018-12-03T10:04:37.712Z,1009.82
2018-12-03T10:05:37.707Z,1009.79
2018-12-03T10:06:37.701Z,1009.79
2018-12-03T10:07:37.694Z,1009.78
2018-12-03T10:08:37.689Z,1009.82
2018-12-03T10:09:37.683Z,1009.83
2018-12-03T10:10:37.678Z,1009.82
2018-12-03T10:11:37.672Z,1009.79
2018-12-03T10:12:37.667Z,1009.8
2018-12-03T10:13:37.661Z,1009.81
2018-12-03T10:14:37.654Z,1009.8
2018-12-03T10:15:37.650Z,1009.84
2018-12-03T10:16:37.643Z,1009.87
2018-12-03T10:17:37.637Z,1009.89
2018-12-03T10:18:37.631Z,1009.85
2018-12-03T10:19:37.626Z,1009.86
2018-12-03T10:20:42.125Z,1009.91
2018-12-03T10:21:37.656Z,1009.87
2018-12-03T10:22:37.607Z,1009.91
2018-12-03T10:23:37.603Z,1009.89
2018-12-03T10:24:37.596Z,1009.93
2018-12-03T10:25:37.594Z,1009.99
2018-12-03T10:26:37.585Z,1009.9
2018-12-03T10:27:37.578Z,1009.93
2018-12-03T10:28:37.572Z,1009.93
2018-12-03T10:29:37.566Z,1009.95
2018-12-03T10:30:37.565Z,1009.93
2018-12-03T10:31:37.554Z,1009.97
2018-12-03T10:32:37.548Z,1009.96
2018-12-03T10:33:37.544Z,1009.93
2018-12-03T10:34:37.539Z,1009.93
2018-12-03T10:35:37.531Z,1009.92
2018-12-03T10:36:37.525Z,1009.95
2018-12-03T10:37:37.518Z,1009.88
2018-12-03T10:38:37.517Z,1009.97
2018-12-03T10:39:37.506Z,1009.99
2018-12-03T10:40:37.499Z,1010.03
2018-12-03T10:41:37.493Z,1010.12
2018-12-03T10:42:37.489Z,1010.17
2018-12-03T10:43:37.481Z,1010.23
2018-12-03T10:44:37.477Z,1010.24
2018-12-03T10:45:37.468Z,1010.29
2018-12-03T10:46:37.464Z,1010.27
2018-12-03T10:47:37.457Z,1010.25
2018-12-03T10:48:37.450Z,1010.22
2018-12-03T10:49:37.445Z,1010.2
2018-12-03T10:50:37.438Z,1010.23
2018-12-03T10:51:37.432Z,1010.19
2018-12-03T10:52:37.427Z,1010.15
2018-12-03T10:53:37.419Z,1010.15
2018-12-03T10:54:37.412Z,1010.13
2018-12-03T10:55:37.406Z,1010.21
2018-12-03T10:56:37.399Z,1010.23
2018-12-03T10:57:37.393Z,1010.13
2018-12-03T10:58:37.387Z,1010.05
2018-12-03T10:59:37.382Z,1010.06
2018-12-03T11:00:37.376Z,1010.03
2018-12-03T11:01:37.369Z,1010.01
2018-12-03T11:02:37.364Z,1009.96
2018-12-03T11:03:37.355Z,1009.96
2018-12-03T11:04:37.351Z,1009.85
2018-12-03T11:05:37.342Z,1009.82
2018-12-03T11:06:37.338Z,1009.75
2018-12-03T11:07:37.332Z,1009.7
2018-12-03T11:08:37.325Z,1009.62
2018-12-03T11:09:37.319Z,1009.56
2018-12-03T11:10:37.312Z,1009.46
2018-12-03T11:11:37.307Z,1009.42
2018-12-03T11:12:37.301Z,1009.44
2018-12-03T11:13:37.294Z,1009.43
2018-12-03T11:14:37.290Z,1009.52
2018-12-03T11:15:37.287Z,1009.57
2018-12-03T11:16:37.277Z,1009.56
2018-12-03T11:17:37.271Z,1009.5
2018-12-03T11:18:37.265Z,1009.57
2018-12-03T11:19:37.259Z,1009.64
2018-12-03T11:20:37.253Z,1009.61
2018-12-03T11:21:37.254Z,1009.62
2018-12-03T11:22:37.242Z,1009.64
2018-12-03T11:23:37.238Z,1009.62
2018-12-03T11:24:37.229Z,1009.62
2018-12-03T11:25:37.225Z,1009.6
2018-12-03T11:26:37.219Z,1009.62
2018-12-03T11:27:37.213Z,1009.68
2018-12-03T11:28:37.207Z,1009.63
2018-12-03T11:29:37.202Z,1009.7
2018-12-03T11:30:37.196Z,1009.79
2018-12-03T11:31:37.189Z,1009.83
2018-12-03T11:32:37.183Z,1009.84
2018-12-03T11:33:37.179Z,1009.86
2018-12-03T11:34:37.172Z,1009.86
2018-12-03T11:35:37.167Z,1009.93
2018-12-03T11:36:37.161Z,1009.94
2018-12-03T11:37:37.155Z,1010
2018-12-03T11:38:37.149Z,1010.07
2018-12-03T11:39:37.144Z,1010.1
2018-12-03T11:40:37.139Z,1010.07
2018-12-03T11:41:37.133Z,1010.13
2018-12-03T11:42:37.125Z,1010.12
2018-12-03T11:43:37.118Z,1010.12
2018-12-03T11:44:37.113Z,1010.14
2018-12-03T11:45:37.106Z,1010.19
2018-12-03T11:46:37.102Z,1010.18
2018-12-03T11:47:37.094Z,1010.22
2018-12-03T11:48:37.089Z,1010.13
2018-12-03T11:49:37.082Z,1010.17
2018-12-03T11:50:37.076Z,1010.16
2018-12-03T11:51:37.072Z,1010.18
2018-12-03T11:52:37.065Z,1010.18
2018-12-03T11:53:37.058Z,1010.18
2018-12-03T11:54:37.051Z,1010.18
2018-12-03T11:55:37.044Z,1010.22
2018-12-03T11:56:37.037Z,1010.25
2018-12-03T11:57:37.088Z,1010.25
2018-12-03T11:58:37.025Z,1010.27
2018-12-03T11:59:37.020Z,1010.28
2018-12-03T12:00:37.014Z,1010.25
2018-12-03T12:01:37.006Z,1010.31
2018-12-03T12:02:37.001Z,1010.37
2018-12-03T12:03:42.478Z,1010.38
2018-12-03T12:04:36.986Z,1010.44
2018-12-03T12:05:36.981Z,1010.45
2018-12-03T12:06:36.973Z,1010.48
2018-12-03T12:07:42.180Z,1010.48
2018-12-03T12:08:36.960Z,1010.5